Time;durP1;ratioP1;P1;durP2;ratioP2;P2;SDS_P1;SDS_P2;PMS_P1;PMS_P2;Temp;Humidity;BMP_temperature;BMP_pressure;BME280_temperature;BME280_humidity;BME280_pressure;Samples;Min_cycle;Max_cycle;Signal;HPM_P1;HPM_P2
2023/07/28 00:01:45;;;;;;;4.83;2.30;;;;;;;15.91;73.03;99877.02;124635;1099;104820;-78
2023/07/28 00:04:16;;;;;;;5.27;2.70;;;;;;;15.90;73.77;99887.59;124619;1102;104233;-77
2023/07/28 00:06:47;;;;;;;4.30;2.53;;;;;;;15.88;73.19;99881.38;124606;1102;104096;-77
2023/07/28 00:09:18;;;;;;;2.87;2.43;;;;;;;15.86;73.17;99881.38;124589;1099;104245;-77
2023/07/28 00:11:50;;;;;;;4.97;2.43;;;;;;;15.86;73.81;99893.73;124699;1102;104259;-78
2023/07/28 00:14:21;;;;;;;4.27;2.30;;;;;;;15.86;73.51;99885.80;124594;1099;104392;-76
2023/07/28 00:16:56;;;;;;;3.20;2.50;;;;;;;15.86;74.04;99889.31;124493;1100;104207;-76
2023/07/28 00:19:27;;;;;;;3.57;2.60;;;;;;;15.84;73.37;99887.56;124456;1102;104347;-76
2023/07/28 00:21:58;;;;;;;5.23;2.60;;;;;;;15.84;74.19;99892.85;124572;1099;101836;-76
2023/07/28 00:24:30;;;;;;;5.57;2.60;;;;;;;15.83;73.63;99889.30;124533;1099;104184;-77
2023/07/28 00:27:01;;;;;;;5.07;2.60;;;;;;;15.84;73.32;99895.50;124647;1099;102557;-77
2023/07/28 00:29:39;;;;;;;4.30;2.50;;;;;;;15.83;73.44;99894.59;124696;1102;104163;-77
2023/07/28 00:32:11;;;;;;;4.03;2.60;;;;;;;15.84;73.50;99896.38;124807;1099;102128;-77
2023/07/28 00:34:43;;;;;;;7.90;2.53;;;;;;;15.84;73.46;99888.44;124716;1099;104176;-78
2023/07/28 00:37:16;;;;;;;6.03;2.80;;;;;;;15.86;73.66;99893.73;124648;1099;104253;-77
2023/07/28 00:39:47;;;;;;;5.33;2.70;;;;;;;15.82;73.94;99895.48;124724;1099;104182;-78
2023/07/28 00:42:18;;;;;;;7.87;2.80;;;;;;;15.80;74.23;99889.32;124671;1099;104189;-77
2023/07/28 00:44:50;;;;;;;4.33;2.90;;;;;;;15.78;73.62;99917.50;124672;1099;104182;-77
2023/07/28 00:47:21;;;;;;;4.95;2.45;;;;;;;15.74;74.19;99907.77;124696;1099;104226;-77
2023/07/28 00:49:52;;;;;;;4.97;2.50;;;;;;;15.72;73.80;99913.05;124671;1099;102086;-78
2023/07/28 00:52:24;;;;;;;4.77;2.97;;;;;;;15.70;73.91;99914.78;124815;1099;102109;-77
2023/07/28 00:54:55;;;;;;;4.80;2.80;;;;;;;15.69;74.14;99922.70;124718;1099;104316;-78
2023/07/28 00:57:26;;;;;;;8.53;3.17;;;;;;;15.67;73.75;99916.53;124700;1102;101916;-78
2023/07/28 00:59:59;;;;;;;5.50;2.73;;;;;;;15.63;74.32;99913.00;124706;1099;104252;-78
2023/07/28 01:02:30;;;;;;;6.73;2.90;;;;;;;15.61;74.62;99920.92;124732;1099;104291;-78
2023/07/28 01:05:02;;;;;;;4.70;3.10;;;;;;;15.59;74.93;99917.36;124696;1102;104181;-77
2023/07/28 01:07:43;;;;;;;4.90;2.80;;;;;;;15.56;74.91;99917.34;124576;1102;104403;-78
2023/07/28 01:10:20;;;;;;;4.83;3.00;;;;;;;15.53;74.32;99916.45;124656;1102;102065;-77
2023/07/28 01:12:51;;;;;;;7.87;3.27;;;;;;;15.51;74.35;99918.21;124735;1099;102233;-78
2023/07/28 01:15:22;;;;;;;9.77;3.00;;;;;;;15.48;75.05;99916.42;124768;1099;104226;-77
2023/07/28 01:17:54;;;;;;;6.90;3.13;;;;;;;15.45;75.80;99914.63;124729;1099;104201;-79
2023/07/28 01:20:30;;;;;;;3.23;2.73;;;;;;;15.41;75.51;99912.86;124680;1099;101955;-78
2023/07/28 01:23:10;;;;;;;6.77;3.40;;;;;;;15.39;75.59;99914.59;124612;1102;101922;-77
2023/07/28 01:25:51;;;;;;;7.13;3.47;;;;;;;15.37;75.53;99918.99;124590;1099;101861;-77
2023/07/28 01:28:23;;;;;;;5.43;2.70;;;;;;;15.34;75.71;99915.45;124650;1099;104258;-77
2023/07/28 01:30:54;;;;;;;5.20;3.40;;;;;;;15.33;75.75;99921.60;124523;1099;101968;-77
2023/07/28 01:33:25;;;;;;;6.53;3.23;;;;;;;15.32;76.17;99920.73;124595;1099;101974;-77
2023/07/28 01:35:58;;;;;;;5.23;2.80;;;;;;;15.32;76.32;99911.89;124615;1099;104051;-77
2023/07/28 01:38:30;;;;;;;6.77;3.00;;;;;;;15.33;76.55;99919.83;124636;1099;104272;-77
2023/07/28 01:41:01;;;;;;;8.77;3.17;;;;;;;15.35;75.68;99930.42;124723;1102;104176;-77
2023/07/28 01:43:32;;;;;;;4.23;2.80;;;;;;;15.33;76.12;99925.13;124707;1102;104169;-78
2023/07/28 01:46:03;;;;;;;8.20;3.37;;;;;;;15.34;75.84;99940.12;124645;1102;102654;-78
2023/07/28 01:48:35;;;;;;;7.23;3.50;;;;;;;15.34;76.67;99932.19;124690;1102;104255;-78
2023/07/28 01:51:06;;;;;;;11.33;4.07;;;;;;;15.33;76.29;99930.41;124606;1102;104248;-77
2023/07/28 01:53:37;;;;;;;6.17;3.17;;;;;;;15.33;76.20;99940.98;124640;1099;101833;-77
2023/07/28 01:56:08;;;;;;;6.23;3.50;;;;;;;15.33;76.61;99940.98;124672;1102;104179;-77
2023/07/28 01:58:40;;;;;;;6.60;3.10;;;;;;;15.32;76.07;99939.23;124619;1102;104207;-78
2023/07/28 02:01:13;;;;;;;6.83;3.30;;;;;;;15.34;76.55;99941.89;124695;1102;104386;-77
2023/07/28 02:03:44;;;;;;;9.10;3.40;;;;;;;15.33;75.82;99943.62;124582;1099;102138;-78
2023/07/28 02:06:15;;;;;;;5.43;3.47;;;;;;;15.33;76.07;99948.91;124657;1100;104316;-77
2023/07/28 02:08:47;;;;;;;7.30;3.43;;;;;;;15.34;76.79;99948.05;124682;1099;101936;-79
2023/07/28 02:11:18;;;;;;;5.90;3.20;;;;;;;15.33;76.86;99956.84;124670;1099;101827;-77
2023/07/28 02:13:50;;;;;;;8.10;3.27;;;;;;;15.33;75.89;99956.84;124753;1102;104220;-78
2023/07/28 02:16:21;;;;;;;7.15;3.30;;;;;;;15.32;76.00;99959.47;124766;1102;102119;-77
2023/07/28 02:18:53;;;;;;;6.27;3.30;;;;;;;15.33;76.71;99962.13;124785;1102;104326;-77
2023/07/28 02:21:24;;;;;;;4.87;3.30;;;;;;;15.31;76.27;99966.53;124651;1102;102098;-77
2023/07/28 02:23:55;;;;;;;7.43;3.50;;;;;;;15.31;77.00;99976.23;124649;1102;104242;-77
2023/07/28 02:26:27;;;;;;;7.17;3.30;;;;;;;15.29;76.18;99970.92;124585;1102;104176;-77
2023/07/28 02:28:58;;;;;;;7.53;3.30;;;;;;;15.27;75.88;99977.97;124690;1099;102032;-77
2023/07/28 02:31:29;;;;;;;6.20;3.40;;;;;;;15.24;76.28;99981.46;124592;1102;102306;-77
2023/07/28 02:34:01;;;;;;;5.73;3.20;;;;;;;15.22;76.32;99982.31;124649;1099;104300;-78
2023/07/28 02:36:32;;;;;;;5.93;3.30;;;;;;;15.20;76.22;99987.58;124691;1102;104344;-78
2023/07/28 02:39:03;;;;;;;7.93;3.37;;;;;;;15.19;76.24;99988.48;124606;1102;102294;-78
2023/07/28 02:41:35;;;;;;;6.67;3.37;;;;;;;15.18;76.83;99988.46;124726;1101;101881;-78
2023/07/28 02:44:06;;;;;;;5.20;3.40;;;;;;;15.16;76.68;99995.47;124689;1102;102393;-77
2023/07/28 02:46:37;;;;;;;8.30;3.60;;;;;;;15.16;77.21;100001.66;124777;1102;102466;-79
2023/07/28 02:49:09;;;;;;;7.83;3.77;;;;;;;15.13;76.90;99998.99;124795;1102;104514;-78
2023/07/28 02:51:41;;;;;;;7.57;3.53;;;;;;;15.13;76.16;100000.73;124830;1102;104061;-78
2023/07/28 02:54:13;;;;;;;6.90;3.43;;;;;;;15.13;76.85;100000.73;124748;1102;104118;-78
2023/07/28 02:56:44;;;;;;;6.47;3.40;;;;;;;15.12;76.32;100005.14;124786;1102;104172;-78
2023/07/28 02:59:16;;;;;;;5.03;3.20;;;;;;;15.12;77.12;100012.19;124729;1102;102018;-79
2023/07/28 03:01:47;;;;;;;8.00;3.93;;;;;;;15.12;76.71;100014.83;124658;1102;101948;-79
2023/07/28 03:04:21;;;;;;;11.10;3.77;;;;;;;15.11;76.62;100006.00;124622;1102;102433;-78
2023/07/28 03:07:11;;;;;;;9.00;3.60;;;;;;;15.13;77.00;100012.20;124772;1102;102040;-77
2023/07/28 03:09:42;;;;;;;9.40;3.70;;;;;;;15.15;76.97;100009.58;124720;1101;104256;-78
2023/07/28 03:12:14;;;;;;;8.70;3.50;;;;;;;15.16;77.06;100014.88;124685;1099;104239;-77
2023/07/28 03:14:45;;;;;;;8.77;3.53;;;;;;;15.17;77.16;100019.27;124766;1102;102663;-78
2023/07/28 03:17:16;;;;;;;11.47;4.40;;;;;;;15.20;76.54;100018.42;124655;1099;104246;-77
2023/07/28 03:19:48;;;;;;;6.15;3.70;;;;;;;15.21;76.16;100023.72;124701;1102;104220;-77
2023/07/28 03:22:20;;;;;;;8.10;4.17;;;;;;;15.24;76.25;100028.16;124708;1102;104198;-78
2023/07/28 03:24:51;;;;;;;11.13;4.07;;;;;;;15.26;76.25;100026.41;124838;1102;104298;-78
2023/07/28 03:27:23;;;;;;;8.60;3.90;;;;;;;15.28;76.23;100022.01;124944;1099;101892;-78
2023/07/28 03:29:54;;;;;;;11.57;4.27;;;;;;;15.32;76.31;100029.11;124824;1099;104190;-78
2023/07/28 03:32:25;;;;;;;9.27;4.33;;;;;;;15.35;76.15;100022.94;124770;1099;104166;-78
2023/07/28 03:34:57;;;;;;;11.50;4.30;;;;;;;15.36;77.09;100022.95;124807;1102;104281;-81
2023/07/28 03:37:28;;;;;;;7.97;4.20;;;;;;;15.38;76.53;100023.87;124821;1102;104248;-79
2023/07/28 03:39:59;;;;;;;7.27;4.07;;;;;;;15.42;76.20;100036.22;124829;1099;104201;-78
2023/07/28 03:42:40;;;;;;;8.50;4.27;;;;;;;15.45;76.07;100040.66;124836;1102;102270;-78
2023/07/28 03:45:12;;;;;;;9.00;4.23;;;;;;;15.49;76.64;100031.90;124737;1099;103041;-77
2023/07/28 03:47:44;;;;;;;13.20;4.27;;;;;;;15.53;76.42;100033.67;124846;1100;102391;-78
2023/07/28 03:50:15;;;;;;;12.20;4.33;;;;;;;15.58;76.08;100039.91;124750;1099;104360;-77
2023/07/28 03:52:46;;;;;;;8.97;4.13;;;;;;;15.62;76.06;100041.67;124726;1099;102045;-77
2023/07/28 03:55:19;;;;;;;10.07;4.63;;;;;;;15.68;76.81;100039.98;124466;1099;104099;-76
2023/07/28 03:57:50;;;;;;;8.20;3.93;;;;;;;15.72;76.96;100039.11;124608;1099;102060;-78
2023/07/28 04:00:21;;;;;;;10.53;4.70;;;;;;;15.77;76.26;100032.14;124601;1102;102238;-78
2023/07/28 04:02:53;;;;;;;12.87;4.13;;;;;;;15.82;75.98;100030.41;124625;1099;104278;-78
2023/07/28 04:05:24;;;;;;;9.57;4.43;;;;;;;15.87;76.60;100028.67;124592;1099;104329;-78
2023/07/28 04:07:55;;;;;;;8.90;4.13;;;;;;;15.91;75.88;100041.05;124518;1099;103173;-77
2023/07/28 04:10:27;;;;;;;11.60;4.20;;;;;;;15.97;75.75;100034.89;124513;1099;104182;-77
2023/07/28 04:12:58;;;;;;;9.30;4.20;;;;;;;16.01;75.56;100031.41;124807;1099;102130;-77
2023/07/28 04:15:29;;;;;;;12.83;4.40;;;;;;;16.05;75.19;100030.55;125178;1099;104166;-78
2023/07/28 04:18:00;;;;;;;10.37;4.20;;;;;;;16.11;76.20;100038.53;126187;1098;101900;-78
2023/07/28 04:20:32;;;;;;;13.63;4.50;;;;;;;16.16;76.30;100042.08;125143;1099;104245;-78
2023/07/28 04:23:03;;;;;;;13.20;4.20;;;;;;;16.22;75.87;100040.33;124590;1099;110647;-77
2023/07/28 04:25:38;;;;;;;10.13;4.23;;;;;;;16.28;75.62;100043.02;124559;1102;104214;-76
2023/07/28 04:28:09;;;;;;;8.97;3.83;;;;;;;16.34;75.68;100038.62;124386;1102;101967;-76
2023/07/28 04:30:41;;;;;;;9.77;4.27;;;;;;;16.40;75.09;100036.91;124436;1099;104078;-80
2023/07/28 04:33:16;;;;;;;11.50;4.93;;;;;;;16.44;75.50;100030.72;124556;1102;102233;-79
2023/07/28 04:35:47;;;;;;;10.70;4.43;;;;;;;16.50;75.08;100042.25;124661;1102;104702;-78
2023/07/28 04:38:24;;;;;;;12.33;4.20;;;;;;;16.54;75.27;100040.48;125344;1102;102125;-78
2023/07/28 04:41:00;;;;;;;7.87;3.83;;;;;;;16.59;75.18;100046.67;124790;1099;102156;-81
2023/07/28 04:43:47;;;;;;;9.07;4.40;;;;;;;16.66;74.60;100052.91;124689;1102;108392;-77
2023/07/28 04:46:19;;;;;;;10.77;4.23;;;;;;;16.70;74.58;100033.47;124558;1102;102096;-78
2023/07/28 04:48:58;;;;;;;11.50;4.43;;;;;;;16.76;74.82;100032.62;124622;1101;102096;-77
2023/07/28 04:51:55;;;;;;;10.07;4.13;;;;;;;16.81;73.88;100037.06;124777;1102;104288;-79
2023/07/28 04:54:42;;;;;;;10.63;4.20;;;;;;;16.87;74.03;100023.83;124979;1099;102493;-78
2023/07/28 04:57:17;;;;;;;7.97;4.10;;;;;;;16.91;73.87;100030.05;124974;1102;102076;-78
2023/07/28 04:59:49;;;;;;;7.33;3.60;;;;;;;16.97;73.67;100030.06;125018;1102;104303;-77
2023/07/28 05:02:20;;;;;;;8.83;3.87;;;;;;;17.03;72.92;100031.81;125052;1101;102415;-78
2023/07/28 05:04:51;;;;;;;7.63;3.90;;;;;;;17.09;72.22;100031.83;125098;1102;104156;-80
2023/07/28 05:07:23;;;;;;;9.13;3.70;;;;;;;17.14;72.84;100022.14;125061;1102;103049;-79
2023/07/28 05:09:54;;;;;;;8.00;4.13;;;;;;;17.20;71.85;100021.24;125080;1102;104144;-78
2023/07/28 05:12:26;;;;;;;;;;;;;;;17.25;70.56;100023.03;125036;1099;104207;-88
2023/07/28 05:14:58;;;;;;;7.57;4.10;;;;;;;17.31;71.52;100021.25;125246;1099;102073;-84
2023/07/28 05:17:31;;;;;;;9.03;4.23;;;;;;;17.38;71.23;100018.61;126120;1099;102965;-79
2023/07/28 05:20:20;;;;;;;7.93;3.37;;;;;;;17.44;70.09;100012.43;125910;1102;102554;-81
2023/07/28 05:23:01;;;;;;;7.73;3.77;;;;;;;17.51;70.56;100015.95;127094;1098;101534;-79
2023/07/28 05:25:34;;;;;;;6.72;3.75;;;;;;;17.55;69.50;100013.30;125754;1099;102527;-82
2023/07/28 05:28:05;;;;;;;9.47;3.90;;;;;;;17.60;69.38;100023.91;125216;1102;104354;-82
2023/07/28 05:30:38;;;;;;;7.63;3.73;;;;;;;17.67;68.64;100024.78;125360;1099;102539;-82
2023/07/28 05:33:10;;;;;;;7.73;3.80;;;;;;;17.73;68.58;100030.98;125241;1103;104394;-78
2023/07/28 05:36:04;;;;;;;8.77;3.70;;;;;;;17.79;68.42;100027.42;125053;1102;102429;-82
2023/07/28 05:38:43;;;;;;;7.03;3.90;;;;;;;17.86;67.62;100026.53;124980;1102;104070;-78
2023/07/28 05:41:14;;;;;;;10.50;3.47;;;;;;;17.95;67.71;100030.95;124961;1098;104128;-77
2023/07/28 05:43:49;;;;;;;7.17;3.83;;;;;;;18.05;67.72;100035.38;125166;1100;104236;-82
2023/07/28 05:46:23;;;;;;;6.00;3.57;;;;;;;18.13;67.42;100036.23;125257;1103;102844;-81
2023/07/28 05:49:00;;;;;;;7.17;3.67;;;;;;;18.21;67.05;100045.95;125387;1102;102138;-82
2023/07/28 05:51:49;;;;;;;9.50;3.40;;;;;;;18.29;65.50;100031.78;125810;1099;104056;-83
2023/07/28 05:54:21;;;;;;;11.00;3.90;;;;;;;18.37;66.50;100028.19;125713;1101;104163;-83
2023/07/28 05:56:54;;;;;;;7.23;3.37;;;;;;;18.46;66.15;100023.72;124814;1102;102230;-80
2023/07/28 05:59:41;;;;;;;8.47;3.63;;;;;;;18.56;65.96;100028.98;125077;1102;103045;-81
2023/07/28 06:02:13;;;;;;;9.33;3.67;;;;;;;18.65;65.76;100034.27;125172;1102;102324;-79
2023/07/28 06:04:52;;;;;;;7.03;3.50;;;;;;;18.71;65.25;100033.36;124915;1102;103929;-78
2023/07/28 06:07:23;;;;;;;11.57;3.40;;;;;;;18.76;63.42;100036.87;124765;1099;104249;-78
2023/07/28 06:09:55;;;;;;;7.90;3.53;;;;;;;18.80;63.65;100036.84;124638;1099;104176;-76
2023/07/28 06:12:27;;;;;;;9.70;3.60;;;;;;;18.85;63.25;100029.79;124625;1102;104232;-78
2023/07/28 06:15:07;;;;;;;8.70;3.37;;;;;;;18.96;63.59;100037.66;124596;1099;104369;-77
2023/07/28 06:17:40;;;;;;;6.87;3.63;;;;;;;19.03;63.81;100026.11;125452;1099;102030;-78
2023/07/28 06:20:14;;;;;;;6.67;3.50;;;;;;;19.13;63.75;100034.03;124939;1102;101884;-76
2023/07/28 06:22:46;;;;;;;7.37;3.53;;;;;;;19.21;62.58;100037.52;124737;1102;102015;-76
2023/07/28 06:25:18;;;;;;;11.70;3.37;;;;;;;19.28;61.71;100036.59;124864;1099;104169;-74
2023/07/28 06:27:51;;;;;;;;;;;;;;;19.34;61.40;100047.18;124793;1099;104192;-73
2023/07/28 06:30:22;;;;;;;6.63;3.47;;;;;;;19.42;62.68;100040.93;124687;1102;101906;-78
2023/07/28 06:32:56;;;;;;;6.87;3.33;;;;;;;19.48;62.64;100032.91;125116;1100;104080;-79
2023/07/28 06:35:28;;;;;;;6.83;3.57;;;;;;;19.57;62.90;100047.00;125268;1099;102946;-77
2023/07/28 06:38:03;;;;;;;6.00;3.37;;;;;;;19.69;61.05;100047.78;124989;1099;104277;-79
2023/07/28 06:40:34;;;;;;;8.03;3.50;;;;;;;19.78;61.71;100044.20;124666;1099;102128;-76
2023/07/28 06:43:07;;;;;;;6.53;3.60;;;;;;;19.86;60.55;100051.20;124609;1102;104182;-78
2023/07/28 06:45:39;;;;;;;7.17;3.55;;;;;;;19.99;60.29;100045.75;124792;1099;104288;-78
2023/07/28 06:48:26;;;;;;;7.53;3.50;;;;;;;20.08;60.30;100048.33;125194;1099;101775;-81
2023/07/28 06:51:03;;;;;;;4.90;3.33;;;;;;;20.16;59.95;100048.25;125282;1099;102335;-81
2023/07/28 06:53:35;;;;;;;8.30;3.60;;;;;;;20.27;59.83;100049.00;125254;1099;101926;-83
2023/07/28 06:56:09;;;;;;;;;;;;;;;20.40;59.03;100045.30;125419;1099;102135;-80
2023/07/28 06:58:43;;;;;;;6.57;3.20;;;;;;;20.52;58.69;100054.95;125439;1101;102895;-81
2023/07/28 07:01:15;;;;;;;8.83;3.20;;;;;;;20.65;58.53;100067.23;124779;1099;103076;-82
2023/07/28 07:03:46;;;;;;;5.80;3.17;;;;;;;20.77;58.81;100054.64;124772;1102;104310;-78
2023/07/28 07:06:19;;;;;;;6.47;3.20;;;;;;;20.89;58.78;100065.14;124725;1102;104085;-81
2023/07/28 07:08:52;;;;;;;8.13;3.27;;;;;;;21.03;57.21;100064.95;124915;1099;104188;-80
2023/07/28 07:11:26;;;;;;;8.85;3.30;;;;;;;21.16;55.42;100058.55;126046;1098;104214;-80
2023/07/28 07:13:58;;;;;;;5.27;3.50;;;;;;;21.29;56.28;100056.57;124738;1099;101852;-82
2023/07/28 07:16:31;;;;;;;7.90;3.90;;;;;;;21.45;57.09;100056.33;124863;1103;104227;-83
2023/07/28 07:19:03;;;;;;;5.53;3.30;;;;;;;21.69;55.86;100060.39;124851;1102;104306;-80
2023/07/28 07:21:35;;;;;;;7.53;3.40;;;;;;;21.89;52.55;100070.73;124899;1102;102353;-80
2023/07/28 07:24:09;;;;;;;5.87;3.17;;;;;;;22.12;54.83;100064.11;124830;1102;104329;-80
2023/07/28 07:26:43;;;;;;;5.60;3.30;;;;;;;22.29;54.41;100061.12;125190;1099;102992;-83
2023/07/28 07:29:18;;;;;;;6.03;3.30;;;;;;;22.45;52.97;100073.28;126363;1099;101926;-82
2023/07/28 07:31:55;;;;;;;6.23;3.07;;;;;;;22.66;53.51;100063.95;125943;1098;104424;-78
2023/07/28 07:34:27;;;;;;;4.07;2.80;;;;;;;22.84;51.65;100075.17;124744;1099;101891;-77
2023/07/28 07:36:59;;;;;;;6.63;3.10;;;;;;;23.02;51.53;100084.59;124712;1099;104165;-81
2023/07/28 07:39:36;;;;;;;5.70;3.17;;;;;;;23.18;50.74;100074.45;124959;1102;102373;-83
2023/07/28 07:42:15;;;;;;;4.50;2.67;;;;;;;23.27;49.25;100083.14;124635;1098;104275;-76
2023/07/28 07:44:51;;;;;;;5.10;3.05;;;;;;;23.38;48.17;100082.02;124372;1099;104165;-79
2023/07/28 07:47:25;;;;;;;5.90;2.80;;;;;;;23.44;48.81;100072.03;124317;1099;104207;-78
2023/07/28 07:50:00;;;;;;;4.97;3.10;;;;;;;23.55;49.63;100073.58;124385;1102;104313;-80
2023/07/28 07:52:37;;;;;;;5.40;3.00;;;;;;;23.78;49.12;100075.66;125027;1099;104325;-76
2023/07/28 07:55:10;;;;;;;5.03;2.73;;;;;;;23.96;49.53;100080.58;125636;1098;101939;-76
2023/07/28 07:57:42;;;;;;;7.92;3.02;;;;;;;24.11;47.15;100073.94;124348;1099;107526;-77
2023/07/28 08:00:18;;;;;;;4.20;2.87;;;;;;;24.27;48.11;100074.40;124206;1099;104293;-76
2023/07/28 08:02:50;;;;;;;5.13;2.70;;;;;;;24.37;47.95;100075.91;124219;1099;104248;-74
2023/07/28 08:05:22;;;;;;;6.30;2.70;;;;;;;24.49;46.68;100071.12;124225;1099;101948;-73
2023/07/28 08:07:56;;;;;;;4.03;2.73;;;;;;;24.49;45.26;100079.16;124274;1102;104363;-74
2023/07/28 08:10:30;;;;;;;6.37;2.60;;;;;;;24.51;45.30;100071.94;124182;1100;104258;-75
2023/07/28 08:13:05;;;;;;;4.90;2.80;;;;;;;24.57;44.47;100074.48;124376;1099;101928;-76
2023/07/28 08:15:37;;;;;;;3.73;2.30;;;;;;;24.62;44.76;100083.30;125254;1102;104313;-81
2023/07/28 08:18:09;;;;;;;5.97;2.60;;;;;;;24.75;45.17;100087.36;124409;1099;101894;-81
2023/07/28 08:20:41;;;;;;;6.17;2.60;;;;;;;24.85;44.67;100066.49;124598;1099;104182;-78
2023/07/28 08:23:13;;;;;;;5.97;2.93;;;;;;;24.91;43.26;100062.75;124806;1102;104166;-77
2023/07/28 08:25:44;;;;;;;5.20;2.90;;;;;;;24.89;43.34;100059.25;125876;1098;102189;-79
2023/07/28 08:28:16;;;;;;;6.43;2.90;;;;;;;24.99;43.96;100058.02;125876;1098;101884;-80
2023/07/28 08:30:56;;;;;;;4.73;2.63;;;;;;;25.05;43.45;100057.83;124789;1099;104162;-78
2023/07/28 08:33:27;;;;;;;6.13;2.80;;;;;;;25.19;43.06;100053.84;125807;1098;101907;-79
2023/07/28 08:35:59;;;;;;;5.13;2.60;;;;;;;25.24;43.03;100049.20;124673;1102;104261;-83
2023/07/28 08:38:30;;;;;;;5.30;3.00;;;;;;;25.26;40.80;100060.79;124540;1098;101880;-79
2023/07/28 08:41:02;;;;;;;3.67;2.20;;;;;;;25.17;39.71;100061.95;124495;1099;101865;-77
2023/07/28 08:43:36;;;;;;;4.80;2.70;;;;;;;25.10;41.04;100061.27;124263;1102;102289;-80
2023/07/28 08:46:08;;;;;;;3.43;2.70;;;;;;;25.17;42.08;100061.95;124716;1102;104338;-78
2023/07/28 08:48:39;;;;;;;4.53;2.60;;;;;;;25.19;41.84;100059.22;124708;1099;104162;-78
2023/07/28 08:51:15;;;;;;;7.03;3.50;;;;;;;25.34;42.29;100057.86;126029;1099;101906;-82
2023/07/28 08:53:47;;;;;;;6.93;3.13;;;;;;;25.38;41.67;100063.08;125992;1098;101965;-78
2023/07/28 08:56:19;;;;;;;3.75;2.60;;;;;;;25.38;41.54;100055.03;124397;1099;104214;-81
2023/07/28 08:58:57;;;;;;;5.53;3.00;;;;;;;25.36;40.55;100070.32;124377;1099;101946;-80
2023/07/28 09:01:30;;;;;;;5.00;2.80;;;;;;;25.25;40.08;100075.13;125938;1098;101794;-80
2023/07/28 09:04:01;;;;;;;3.13;2.47;;;;;;;25.23;40.22;100064.44;126486;1099;101827;-77
2023/07/28 09:06:33;;;;;;;4.23;2.77;;;;;;;25.16;40.66;100059.31;125948;1098;104178;-80
2023/07/28 09:09:07;;;;;;;4.60;2.73;;;;;;;25.18;39.91;100073.55;126092;1102;101707;-76
2023/07/28 09:11:46;;;;;;;5.03;2.43;;;;;;;25.10;40.35;100063.95;125732;1099;101926;-76
2023/07/28 09:14:25;;;;;;;5.43;2.60;;;;;;;25.00;39.28;100065.16;124331;1099;104390;-78
2023/07/28 09:17:08;;;;;;;2.90;2.43;;;;;;;25.04;39.84;100072.20;125084;1100;102161;-77
2023/07/28 09:19:54;;;;;;;7.03;2.83;;;;;;;25.10;39.73;100069.33;124351;1099;110846;-78
2023/07/28 09:22:26;;;;;;;7.00;2.85;;;;;;;25.23;39.90;100068.94;124304;1100;104211;-75
2023/07/28 09:24:57;;;;;;;4.53;2.90;;;;;;;25.25;40.35;100053.66;124629;1099;101929;-74
2023/07/28 09:27:36;;;;;;;3.22;2.20;;;;;;;25.22;39.10;100078.78;124517;1102;104265;-74
2023/07/28 09:30:09;;;;;;;4.73;2.77;;;;;;;25.20;39.43;100069.04;124265;1099;101970;-74
2023/07/28 09:32:47;;;;;;;4.22;2.55;;;;;;;25.17;38.59;100055.71;124363;1099;104337;-75
2023/07/28 09:35:19;;;;;;;4.10;2.40;;;;;;;25.19;39.37;100053.84;124328;1099;104261;-74
2023/07/28 09:37:54;;;;;;;4.57;2.47;;;;;;;25.23;39.00;100064.44;124286;1099;104193;-76
2023/07/28 09:40:27;;;;;;;6.70;2.80;;;;;;;25.17;38.42;100064.63;124329;1102;104380;-75
2023/07/28 09:42:59;;;;;;;4.30;2.20;;;;;;;25.13;37.78;100068.33;124308;1099;104245;-75
2023/07/28 09:45:32;;;;;;;4.47;2.50;;;;;;;25.12;37.64;100059.41;124387;1102;104166;-74
2023/07/28 09:48:07;;;;;;;3.30;2.60;;;;;;;25.08;37.75;100051.50;124267;1102;104272;-76
2023/07/28 09:50:40;;;;;;;5.93;2.60;;;;;;;25.16;37.95;100044.07;124322;1102;104239;-78
2023/07/28 09:53:11;;;;;;;;;;;;;;;25.23;37.21;100050.15;124259;1099;104166;-77
2023/07/28 09:55:44;;;;;;;4.97;2.50;;;;;;;25.17;37.42;100059.27;124325;1099;104245;-75
2023/07/28 09:58:20;;;;;;;4.12;2.02;;;;;;;25.10;36.38;100055.91;124280;1099;102031;-75
2023/07/28 10:00:53;;;;;;;7.33;2.27;;;;;;;25.09;36.63;100062.19;124367;1098;104214;-75
2023/07/28 10:03:26;;;;;;;2.53;2.20;;;;;;;25.10;36.79;100061.27;124435;1099;101986;-75
2023/07/28 10:05:57;;;;;;;7.13;2.50;;;;;;;25.15;37.02;100057.55;124387;1099;104364;-81
2023/07/28 10:08:29;;;;;;;6.67;2.50;;;;;;;25.21;36.98;100052.88;124547;1099;101852;-77
2023/07/28 10:11:03;;;;;;;3.33;2.10;;;;;;;25.32;36.62;100052.54;125185;1100;104307;-75
2023/07/28 10:13:42;;;;;;;4.60;2.47;;;;;;;25.39;37.04;100056.80;125478;1099;101880;-79
2023/07/28 10:16:18;;;;;;;3.33;2.23;;;;;;;25.47;36.03;100067.29;124686;1099;104270;-77
2023/07/28 10:18:57;;;;;;;3.40;2.40;;;;;;;25.47;36.34;100053.86;124499;1099;104233;-76
2023/07/28 10:21:31;;;;;;;6.20;2.40;;;;;;;25.37;35.54;100053.30;124376;1099;102094;-74
2023/07/28 10:24:05;;;;;;;3.37;2.17;;;;;;;25.41;36.56;100054.06;124749;1099;102257;-78
2023/07/28 10:26:41;;;;;;;5.87;2.20;;;;;;;25.42;35.96;100055.83;124807;1099;102383;-73
2023/07/28 10:29:14;;;;;;;3.90;2.13;;;;;;;25.46;36.11;100063.73;124715;1101;104242;-74
2023/07/28 10:31:55;;;;;;;;;;;;;;;25.53;34.75;100058.16;124306;1099;104284;-76
2023/07/28 10:34:29;;;;;;;4.13;2.30;;;;;;;25.56;35.41;100050.00;124531;1100;104195;-78
2023/07/28 10:37:07;;;;;;;3.13;2.30;;;;;;;25.42;34.90;100061.20;125125;1099;104235;-76
2023/07/28 10:40:14;;;;;;;2.40;2.10;;;;;;;25.25;34.55;100051.84;124433;1099;104240;-80
2023/07/28 10:42:48;;;;;;;6.83;2.23;;;;;;;25.30;34.70;100052.59;124352;1099;104277;-76
2023/07/28 10:45:20;;;;;;;7.07;2.87;;;;;;;25.42;35.13;100051.33;124258;1099;104373;-77
2023/07/28 10:48:03;;;;;;;2.57;2.37;;;;;;;25.50;34.80;100053.76;124807;1099;104166;-78
2023/07/28 10:50:34;;;;;;;5.77;2.37;;;;;;;25.56;35.26;100058.93;124355;1099;102150;-75
2023/07/28 10:53:06;;;;;;;4.97;2.20;;;;;;;25.64;34.16;100051.48;125766;1099;104236;-81
2023/07/28 10:55:41;;;;;;;2.60;2.00;;;;;;;25.69;34.18;100050.45;124416;1102;102015;-75
2023/07/28 10:58:14;;;;;;;3.77;2.00;;;;;;;25.75;34.62;100051.11;124615;1099;104329;-81
2023/07/28 11:00:47;;;;;;;3.87;2.20;;;;;;;25.81;34.72;100047.36;124619;1099;104268;-76
2023/07/28 11:03:21;;;;;;;4.37;2.17;;;;;;;25.86;33.93;100049.88;124432;1099;104233;-76
2023/07/28 11:05:52;;;;;;;3.60;2.07;;;;;;;25.91;33.50;100047.91;124433;1099;104204;-77
2023/07/28 11:08:24;;;;;;;3.53;2.10;;;;;;;25.89;33.39;100041.72;125702;1099;101906;-79
2023/07/28 11:10:56;;;;;;;2.83;2.13;;;;;;;25.89;33.00;100049.78;124665;1099;101945;-78
2023/07/28 11:13:30;;;;;;;2.67;2.10;;;;;;;25.90;32.98;100043.45;124536;1099;104162;-77
2023/07/28 11:16:04;;;;;;;4.08;2.27;;;;;;;25.89;32.76;100036.34;124401;1102;104277;-77
2023/07/28 11:18:36;;;;;;;4.03;2.10;;;;;;;25.84;32.69;100042.73;124728;1099;104274;-81
2023/07/28 11:21:07;;;;;;;5.10;2.50;;;;;;;25.89;32.58;100049.78;124614;1099;104178;-77
2023/07/28 11:23:42;;;;;;;3.30;2.20;;;;;;;25.88;32.61;100034.57;124617;1099;101948;-80
2023/07/28 11:26:23;;;;;;;4.47;2.13;;;;;;;25.90;32.76;100024.63;125939;1097;104172;-78
2023/07/28 11:29:24;;;;;;;;;;;;;;;25.92;32.47;100028.17;124725;1102;104134;-76
2023/07/28 11:32:04;;;;;;;6.73;2.47;;;;;;;25.96;32.71;100029.80;124456;1099;104214;-76
2023/07/28 11:34:41;;;;;;;5.63;2.07;;;;;;;25.98;32.33;100030.67;124273;1102;104253;-74
2023/07/28 11:37:16;;;;;;;3.33;2.10;;;;;;;26.11;32.70;100026.59;124894;1099;104218;-78
2023/07/28 11:39:49;;;;;;;4.77;2.23;;;;;;;26.17;32.81;100034.44;124903;1099;102003;-84
2023/07/28 11:42:22;;;;;;;3.77;1.90;;;;;;;26.22;32.79;100030.72;124831;1099;111998;-81